createdAt,value
2019-02-02T00:00:44.045Z,95.05
2019-02-02T00:03:12.878Z,83.10
2019-02-02T00:05:41.668Z,91.90
2019-02-02T00:08:10.567Z,85.28
2019-02-02T00:10:39.408Z,82.62
2019-02-02T00:13:08.177Z,83.60
2019-02-02T00:15:36.983Z,87.65
2019-02-02T00:18:06.808Z,96.37
2019-02-02T00:20:35.643Z,90.83
2019-02-02T00:23:04.691Z,86.50
2019-02-02T00:25:33.436Z,87.90
2019-02-02T00:28:02.188Z,95.22
2019-02-02T00:30:30.982Z,107.10
2019-02-02T00:32:59.764Z,92.67
2019-02-02T00:35:28.526Z,96.10
2019-02-02T00:37:57.621Z,102.55
2019-02-02T00:40:26.398Z,225.50
2019-02-02T00:42:55.192Z,155.37
2019-02-02T00:45:24.402Z,95.07
2019-02-02T00:47:53.604Z,102.38
2019-02-02T00:50:22.371Z,109.75
2019-02-02T00:52:51.119Z,105.90
2019-02-02T00:55:20.343Z,106.27
2019-02-02T00:57:53.509Z,110.92
2019-02-02T01:00:26.512Z,107.30
2019-02-02T01:02:55.424Z,101.25
2019-02-02T01:05:24.870Z,111.35
2019-02-02T01:07:56.300Z,107.20
2019-02-02T01:10:29.834Z,120.80
2019-02-02T01:13:03.001Z,119.87
2019-02-02T01:15:32.211Z,106.35
2019-02-02T01:18:01.144Z,116.95
2019-02-02T01:20:30.673Z,110.35
2019-02-02T01:22:59.480Z,112.92
2019-02-02T01:25:28.295Z,127.80
2019-02-02T01:28:04.949Z,116.50
2019-02-02T01:30:27.768Z,121.62
2019-02-02T01:32:56.583Z,131.25
2019-02-02T01:35:25.390Z,121.62
2019-02-02T01:37:54.485Z,123.80
2019-02-02T01:40:32.158Z,118.10
2019-02-02T01:43:00.945Z,120.67
2019-02-02T01:45:30.573Z,128.87
2019-02-02T01:47:59.397Z,124.47
2019-02-02T01:50:29.091Z,141.00
2019-02-02T01:52:58.033Z,118.42
2019-02-02T01:55:27.115Z,136.12
2019-02-02T01:57:56.018Z,130.32
2019-02-02T02:00:32.820Z,141.68
2019-02-02T02:03:01.886Z,141.30
2019-02-02T02:05:30.820Z,131.60
2019-02-02T02:08:00.045Z,144.93
2019-02-02T02:10:28.864Z,139.32
2019-02-02T02:12:57.592Z,144.68
2019-02-02T02:15:26.361Z,137.88
2019-02-02T02:17:55.106Z,147.50
2019-02-02T02:20:24.514Z,142.37
2019-02-02T02:22:53.448Z,136.90
2019-02-02T02:25:22.248Z,163.15
2019-02-02T02:27:51.059Z,136.40
2019-02-02T02:30:21.673Z,141.73
2019-02-02T02:32:51.103Z,145.97
2019-02-02T02:35:20.041Z,147.40
2019-02-02T02:37:49.643Z,141.15
2019-02-02T02:40:21.212Z,144.90
2019-02-02T02:42:50.253Z,143.90
2019-02-02T02:45:19.172Z,153.42
2019-02-02T02:47:48.146Z,135.40
2019-02-02T02:50:19.167Z,152.93
2019-02-02T02:52:47.970Z,156.02
2019-02-02T02:55:17.763Z,148.78
2019-02-02T02:57:47.150Z,147.45
2019-02-02T03:00:21.371Z,148.62
2019-02-02T03:02:50.206Z,148.60
2019-02-02T03:05:19.328Z,144.80
2019-02-02T03:07:49.385Z,145.07
2019-02-02T03:10:20.320Z,152.75
2019-02-02T03:12:49.192Z,155.10
2019-02-02T03:15:20.249Z,167.45
2019-02-02T03:17:50.184Z,157.80
2019-02-02T03:20:19.007Z,154.25
2019-02-02T03:22:47.790Z,148.87
2019-02-02T03:25:19.370Z,155.95
2019-02-02T03:27:48.282Z,166.68
2019-02-02T03:30:18.782Z,157.20
2019-02-02T03:32:47.615Z,153.05
2019-02-02T03:35:18.640Z,172.45
2019-02-02T03:37:47.436Z,152.12
2019-02-02T03:40:23.147Z,152.87
2019-02-02T03:42:51.942Z,154.12
2019-02-02T03:45:22.930Z,176.40
2019-02-02T03:47:52.665Z,158.75
2019-02-02T03:50:21.913Z,150.90
2019-02-02T03:52:50.967Z,164.25
2019-02-02T03:55:30.236Z,157.88
2019-02-02T03:57:59.045Z,171.68
2019-02-02T04:00:27.830Z,151.00
2019-02-02T04:02:56.666Z,172.43
2019-02-02T04:05:30.016Z,153.15
2019-02-02T04:07:58.939Z,161.82
2019-02-02T04:10:27.714Z,169.40
2019-02-02T04:12:56.522Z,165.75
2019-02-02T04:15:25.363Z,159.12
2019-02-02T04:17:54.205Z,161.12
2019-02-02T04:20:23.532Z,171.75
2019-02-02T04:22:52.504Z,157.62
2019-02-02T04:25:22.521Z,169.07
2019-02-02T04:27:51.538Z,185.03
2019-02-02T04:30:22.956Z,170.32
2019-02-02T04:32:52.136Z,194.25
2019-02-02T04:35:21.140Z,167.18
2019-02-02T04:37:49.992Z,168.93
2019-02-02T04:40:19.208Z,179.50
2019-02-02T04:42:47.977Z,166.80
2019-02-02T04:45:17.829Z,165.30
2019-02-02T04:47:46.665Z,149.93
2019-02-02T04:50:17.372Z,161.80
2019-02-02T04:52:46.389Z,154.05
2019-02-02T04:55:16.831Z,165.55
2019-02-02T04:57:45.654Z,159.97
2019-02-02T05:00:19.622Z,165.37
2019-02-02T05:02:48.445Z,163.80
2019-02-02T05:05:18.177Z,164.90
2019-02-02T05:07:47.333Z,167.53
2019-02-02T05:10:19.315Z,173.40
2019-02-02T05:12:48.618Z,179.00
2019-02-02T05:15:17.428Z,170.53
2019-02-02T05:17:46.300Z,170.22
2019-02-02T05:20:17.622Z,163.65
2019-02-02T05:22:46.549Z,150.40
2019-02-02T05:25:15.292Z,167.90
2019-02-02T05:27:44.073Z,160.43
2019-02-02T05:30:21.513Z,165.47
2019-02-02T05:32:50.322Z,169.30
2019-02-02T05:35:19.182Z,175.93
2019-02-02T05:37:47.981Z,156.50
2019-02-02T05:40:18.768Z,162.18
2019-02-02T05:42:47.522Z,156.70
2019-02-02T05:45:18.371Z,168.57
2019-02-02T05:47:47.384Z,148.30
2019-02-02T05:50:18.208Z,159.30
2019-02-02T05:52:47.025Z,174.80
2019-02-02T05:55:17.651Z,155.45
2019-02-02T05:57:46.483Z,151.00
2019-02-02T06:00:31.008Z,162.70
2019-02-02T06:02:59.792Z,142.30
2019-02-02T06:05:28.645Z,155.05
2019-02-02T06:07:57.399Z,156.10
2019-02-02T06:10:26.150Z,162.27
2019-02-02T06:12:55.010Z,151.95
2019-02-02T06:15:24.576Z,158.12
2019-02-02T06:17:53.690Z,141.68
2019-02-02T06:20:22.462Z,169.30
2019-02-02T06:22:51.254Z,158.45
2019-02-02T06:25:20.077Z,160.07
2019-02-02T06:27:48.896Z,167.47
2019-02-02T06:30:20.361Z,144.13
2019-02-02T06:32:49.177Z,170.97
2019-02-02T06:35:18.980Z,161.68
2019-02-02T06:37:47.873Z,154.23
2019-02-02T06:40:17.505Z,158.27
2019-02-02T06:42:46.254Z,163.90
2019-02-02T06:45:30.089Z,164.93
2019-02-02T06:47:59.326Z,163.03
2019-02-02T06:50:28.076Z,157.52
2019-02-02T06:52:57.464Z,142.82
2019-02-02T06:55:26.226Z,147.55
2019-02-02T06:57:55.036Z,153.23
2019-02-02T07:00:26.659Z,151.78
2019-02-02T07:02:55.867Z,144.93
2019-02-02T07:05:24.777Z,149.07
2019-02-02T07:07:53.828Z,159.67
2019-02-02T07:10:24.748Z,167.80
2019-02-02T07:12:53.599Z,158.63
2019-02-02T07:15:24.926Z,158.95
2019-02-02T07:17:53.734Z,157.75
2019-02-02T07:20:22.546Z,155.07
2019-02-02T07:22:51.338Z,166.55
2019-02-02T07:25:20.326Z,181.02
2019-02-02T07:27:49.080Z,158.12
2019-02-02T07:30:29.678Z,161.88
2019-02-02T07:32:55.443Z,151.32
2019-02-02T07:35:24.193Z,151.68
2019-02-02T07:37:52.972Z,161.05
2019-02-02T07:40:22.214Z,166.45
2019-02-02T07:42:51.396Z,175.00
2019-02-02T07:45:25.702Z,166.05
2019-02-02T07:47:54.461Z,179.03
2019-02-02T07:50:23.220Z,178.82
2019-02-02T07:52:52.284Z,186.12
2019-02-02T07:55:22.222Z,174.25
2019-02-02T07:57:51.174Z,162.62
2019-02-02T08:00:22.990Z,157.43
2019-02-02T08:02:52.152Z,187.05
2019-02-02T08:05:20.988Z,173.17
2019-02-02T08:07:49.805Z,189.90
2019-02-02T08:10:18.672Z,176.15
2019-02-02T08:12:47.513Z,180.72
2019-02-02T08:15:21.732Z,173.57
2019-02-02T08:17:50.494Z,164.82
2019-02-02T08:20:19.261Z,174.20
2019-02-02T08:22:48.122Z,167.75
2019-02-02T08:25:17.420Z,166.82
2019-02-02T08:27:46.565Z,166.18
2019-02-02T08:30:23.701Z,182.43
2019-02-02T08:32:52.540Z,178.87
2019-02-02T08:35:21.294Z,172.82
2019-02-02T08:37:50.113Z,168.57
2019-02-02T08:40:19.940Z,171.77
2019-02-02T08:42:49.091Z,175.87
2019-02-02T08:45:18.483Z,152.02
2019-02-02T08:47:47.547Z,160.12
2019-02-02T08:50:21.902Z,165.97
2019-02-02T08:52:50.831Z,159.55
2019-02-02T08:55:19.621Z,195.38
2019-02-02T08:57:48.396Z,173.45
2019-02-02T09:00:21.423Z,193.40
2019-02-02T09:02:50.295Z,187.65
2019-02-02T09:05:20.913Z,181.45
2019-02-02T09:07:49.708Z,170.53
2019-02-02T09:10:20.721Z,182.80
2019-02-02T09:12:49.710Z,179.93
2019-02-02T09:15:19.510Z,196.50
2019-02-02T09:17:48.363Z,184.70
2019-02-02T09:20:17.138Z,185.00
2019-02-02T09:22:46.741Z,178.40
2019-02-02T09:25:17.227Z,201.85
2019-02-02T09:27:46.143Z,201.85
2019-02-02T09:30:26.534Z,169.32
2019-02-02T09:32:55.282Z,151.37
2019-02-02T09:35:24.044Z,157.03
2019-02-02T09:37:53.134Z,158.63
2019-02-02T09:40:21.943Z,148.82
2019-02-02T09:42:50.757Z,145.55
2019-02-02T09:45:23.561Z,151.10
2019-02-02T09:47:52.408Z,151.87
2019-02-02T09:50:25.776Z,154.47
2019-02-02T09:52:54.885Z,142.98
2019-02-02T09:55:25.416Z,157.50
2019-02-02T09:57:59.585Z,147.20
2019-02-02T10:00:30.095Z,160.52
2019-02-02T10:02:58.852Z,143.82
2019-02-02T10:05:28.195Z,164.13
2019-02-02T10:07:57.077Z,152.43
2019-02-02T10:10:27.779Z,150.97
2019-02-02T10:12:56.621Z,144.07
2019-02-02T10:15:25.368Z,156.97
2019-02-02T10:17:54.116Z,155.50
2019-02-02T10:20:24.955Z,146.60
2019-02-02T10:22:54.282Z,154.03
2019-02-02T10:25:25.292Z,181.57
2019-02-02T10:27:54.188Z,168.37
2019-02-02T10:30:28.140Z,150.87
2019-02-02T10:32:56.906Z,153.97
2019-02-02T10:35:25.697Z,153.80
2019-02-02T10:37:54.512Z,165.88
2019-02-02T10:40:23.301Z,163.92
2019-02-02T10:42:52.232Z,178.75
2019-02-02T10:45:21.131Z,154.87
2019-02-02T10:51:17.513Z,159.15
2019-02-02T10:54:05.820Z,160.85
2019-02-02T10:56:55.185Z,167.40
2019-02-02T10:59:42.986Z,187.72
2019-02-02T11:02:30.941Z,149.62
2019-02-02T11:05:18.768Z,149.05
2019-02-02T11:08:06.656Z,154.75
2019-02-02T11:10:54.548Z,157.80
2019-02-02T11:13:42.643Z,160.97
2019-02-02T11:16:32.001Z,163.37
2019-02-02T11:19:19.912Z,161.15
2019-02-02T11:22:08.067Z,158.82
2019-02-02T12:39:44.477Z,188.60
2019-02-02T13:45:18.525Z,183.75
2019-02-02T14:03:02.238Z,178.00
2019-02-02T14:08:33.047Z,177.93
2019-02-02T14:53:07.266Z,116.15
2019-02-02T14:56:09.242Z,116.67
2019-02-02T14:58:44.605Z,110.17
2019-02-02T15:01:32.392Z,114.70
2019-02-02T15:04:20.942Z,120.28
2019-02-02T15:09:43.419Z,120.72
2019-02-02T15:12:12.313Z,110.90
2019-02-02T15:15:00.535Z,103.58
2019-02-02T15:17:48.413Z,98.00
2019-02-02T15:20:36.608Z,109.80
2019-02-02T15:23:24.734Z,102.53
2019-02-02T15:26:07.588Z,107.20
2019-02-02T15:55:40.794Z,127.35
2019-02-02T16:07:36.354Z,132.67
2019-02-02T16:28:10.677Z,137.47
2019-02-02T16:36:49.174Z,129.78
2019-02-02T16:39:30.609Z,111.25
2019-02-02T16:42:12.159Z,137.45
2019-02-02T16:47:53.663Z,117.05
2019-02-02T16:50:23.479Z,132.37
2019-02-02T16:52:52.254Z,122.95
2019-02-02T16:55:21.099Z,132.15
2019-02-02T16:57:50.100Z,103.10
2019-02-02T17:00:20.975Z,134.65
2019-02-02T17:02:49.905Z,113.97
2019-02-02T17:05:18.932Z,108.95
2019-02-02T17:07:48.271Z,110.25
2019-02-02T17:10:19.766Z,118.22
2019-02-02T17:12:48.538Z,124.05
2019-02-02T17:15:17.497Z,129.42
2019-02-02T17:17:46.304Z,131.10
2019-02-02T17:20:17.925Z,115.25
2019-02-02T17:22:47.063Z,118.75
2019-02-02T17:25:18.062Z,119.10
2019-02-02T17:27:47.109Z,125.42
2019-02-02T17:30:19.052Z,123.02
2019-02-02T17:32:48.629Z,120.28
2019-02-02T17:35:17.405Z,131.25
2019-02-02T17:37:46.247Z,123.22
2019-02-02T17:40:20.795Z,116.70
2019-02-02T17:42:50.006Z,139.40
2019-02-02T17:45:20.647Z,130.12
2019-02-02T17:47:49.625Z,136.35
2019-02-02T17:50:20.388Z,145.72
2019-02-02T17:52:49.281Z,142.55
2019-02-02T17:55:18.210Z,132.70
2019-02-02T17:57:47.072Z,130.25
2019-02-02T18:00:25.648Z,127.47
2019-02-02T18:02:54.501Z,124.55
2019-02-02T18:05:23.352Z,135.07
2019-02-02T18:07:52.187Z,132.82
2019-02-02T18:10:20.988Z,134.95
2019-02-02T18:12:49.876Z,131.93
2019-02-02T18:15:18.790Z,129.15
2019-02-02T18:17:47.564Z,123.30
2019-02-02T18:20:16.690Z,125.82
2019-02-02T18:22:45.483Z,122.90
2019-02-02T18:25:15.751Z,120.25
2019-02-02T18:27:44.671Z,126.27
2019-02-02T18:30:22.524Z,120.82
2019-02-02T18:32:51.361Z,122.92
2019-02-02T18:35:20.209Z,128.32
2019-02-02T18:37:48.996Z,109.30
2019-02-02T18:40:24.874Z,121.82
2019-02-02T18:42:53.867Z,115.45
2019-02-02T18:45:24.873Z,101.47
2019-02-02T18:47:53.999Z,109.30
2019-02-02T18:50:23.215Z,97.40
2019-02-02T18:52:54.200Z,106.97
2019-02-02T18:55:42.785Z,90.05
2019-02-02T18:58:11.550Z,108.30
2019-02-02T19:00:40.772Z,97.33
2019-02-02T19:03:09.529Z,103.12
2019-02-02T19:05:38.330Z,105.90
2019-02-02T19:08:07.578Z,96.10
2019-02-02T19:10:38.979Z,89.97
2019-02-02T19:13:08.112Z,100.55
2019-02-02T19:15:37.011Z,101.27
2019-02-02T19:18:07.635Z,112.30
2019-02-02T19:20:36.429Z,101.90
2019-02-02T19:23:05.843Z,97.42
2019-02-02T19:25:34.738Z,110.25
2019-02-02T19:28:04.227Z,98.52
2019-02-02T19:30:34.315Z,92.27
2019-02-02T19:33:03.078Z,92.05
2019-02-02T19:35:31.816Z,100.78
2019-02-02T19:38:00.943Z,98.50
2019-02-02T19:40:29.780Z,95.15
2019-02-02T19:42:58.592Z,110.00
2019-02-02T19:45:28.349Z,119.35
2019-02-02T19:47:57.100Z,107.37
2019-02-02T19:50:27.469Z,124.58
2019-02-02T19:52:56.339Z,98.87
2019-02-02T19:55:25.117Z,104.60
2019-02-02T19:57:53.949Z,107.27
2019-02-02T20:00:27.844Z,101.90
2019-02-02T20:02:56.709Z,98.75
2019-02-02T20:05:28.659Z,98.92
2019-02-02T20:07:56.117Z,114.62
2019-02-02T20:10:25.316Z,103.22
2019-02-02T20:12:54.344Z,102.32
2019-02-02T20:15:25.229Z,107.47
2019-02-02T20:17:54.440Z,95.50
2019-02-02T20:20:28.046Z,98.33
2019-02-02T20:22:57.272Z,70.80
2019-02-02T20:25:26.615Z,101.02
2019-02-02T20:27:55.693Z,94.90
2019-02-02T20:30:27.076Z,92.35
2019-02-02T20:32:56.055Z,97.95
2019-02-02T20:35:25.122Z,100.82
2019-02-02T20:37:53.872Z,93.92
2019-02-02T20:40:25.758Z,93.20
2019-02-02T20:42:55.156Z,113.15
2019-02-02T20:45:29.661Z,102.53
2019-02-02T20:47:58.554Z,106.32
2019-02-02T20:50:27.434Z,100.80
2019-02-02T20:52:56.275Z,114.95
2019-02-02T20:55:30.380Z,113.37
2019-02-02T20:57:59.162Z,115.22
2019-02-02T21:00:29.692Z,121.82
2019-02-02T21:02:58.532Z,129.68
2019-02-02T21:05:27.316Z,135.40
2019-02-02T21:07:56.102Z,129.35
2019-02-02T21:10:25.926Z,140.73
2019-02-02T21:12:54.949Z,136.43
2019-02-02T21:15:23.806Z,131.32
2019-02-02T21:17:53.354Z,130.30
2019-02-02T21:20:24.562Z,147.13
2019-02-02T21:22:53.950Z,155.00
2019-02-02T21:25:23.197Z,147.85
2019-02-02T21:27:52.060Z,130.90
2019-02-02T21:30:26.638Z,162.15
2019-02-02T21:32:55.767Z,138.90
2019-02-02T21:35:25.389Z,153.15
2019-02-02T21:37:54.235Z,183.22
2019-02-02T21:40:25.709Z,130.70
2019-02-02T21:42:54.654Z,143.05
2019-02-02T21:45:23.441Z,125.25
2019-02-02T21:47:52.705Z,133.40
2019-02-02T21:50:23.526Z,125.38
2019-02-02T21:52:53.269Z,122.28
2019-02-02T21:55:26.746Z,131.63
2019-02-02T21:57:55.688Z,122.67
2019-02-02T22:00:36.468Z,125.87
2019-02-02T22:03:06.933Z,118.82
2019-02-02T22:05:35.699Z,109.92
2019-02-02T22:08:06.593Z,118.57
2019-02-02T22:10:35.452Z,121.62
2019-02-02T22:13:05.148Z,103.67
2019-02-02T22:15:33.958Z,100.05
2019-02-02T22:18:02.787Z,88.05
2019-02-02T22:20:31.574Z,77.60
2019-02-02T22:23:00.450Z,83.78
2019-02-02T22:25:31.539Z,76.22
2019-02-02T22:28:00.686Z,77.42
2019-02-02T22:30:31.578Z,72.08
2019-02-02T22:33:00.541Z,77.03
2019-02-02T22:35:29.372Z,52.10
2019-02-02T22:38:00.067Z,50.12
2019-02-02T22:40:29.154Z,37.53
2019-02-02T22:42:58.034Z,50.75
2019-02-02T22:45:26.848Z,54.20
2019-02-02T22:47:55.605Z,56.95
2019-02-02T22:50:27.962Z,47.27
2019-02-02T22:52:56.818Z,49.85
2019-02-02T22:55:25.652Z,50.00
2019-02-02T22:57:55.172Z,53.52
2019-02-02T23:00:43.000Z,46.10
2019-02-02T23:03:14.912Z,42.08
2019-02-02T23:05:49.377Z,51.40
2019-02-02T23:08:21.313Z,48.25
2019-02-02T23:10:55.775Z,43.20
2019-02-02T23:13:57.867Z,42.40
2019-02-02T23:16:27.936Z,49.65
2019-02-02T23:18:57.042Z,37.15
2019-02-02T23:21:26.140Z,48.25
2019-02-02T23:23:54.969Z,41.53
2019-02-02T23:26:24.039Z,41.23
2019-02-02T23:28:52.897Z,48.10
2019-02-02T23:31:22.199Z,47.85
2019-02-02T23:33:50.948Z,53.95
2019-02-02T23:36:19.768Z,52.13
2019-02-02T23:38:48.558Z,63.80
2019-02-02T23:41:17.412Z,53.55
2019-02-02T23:43:46.270Z,51.55
2019-02-02T23:46:15.415Z,51.42
2019-02-02T23:48:44.281Z,44.05
2019-02-02T23:51:13.148Z,43.50
2019-02-02T23:53:41.956Z,48.73
2019-02-02T23:56:10.781Z,41.25
2019-02-02T23:58:39.604Z,44.83
